Unstable conditions associated with ‘Hurricane Teddy’ are expected across the island chain tonight/early Saturday, with gradual increase in cloudiness across St. Vincent and the Grenadines (SVG). Cloudiness, showers and thunderstorm activity can be expected Saturday, decreasing during the night/early Sunday; but lingering instability and day-time heating may trigger showers and thunderstorm activity during Sunday and Monday.

Light (less than 10 km/h) southerly breeze can be expected tonight, becoming calm at times. Gradual increase in wind speeds is likely during Saturday, becoming moderate (up to 30 km/h) by Sunday and wind direction could turn east north-easterly by late Monday.

Aviation WX

[Source: ADDS]
METAR
TVSA 221500Z COR 00000KT 9999 BKN022 31/26 Q1013 NOSIG =
TVSA 221100Z 2212/2312 07006KT 9999 SCT020
TAF
TVSA 221100Z 2212/2312 07006KT 9999 SCT020 =
SR / SS: 09:53 / 22:00 UTC (Sunrise Sunset 2020-09-22)